Time;durP1;ratioP1;P1;durP2;ratioP2;P2;SDS_P1;SDS_P2;PMS_P1;PMS_P2;Temp;Humidity;BMP_temperature;BMP_pressure;BME280_temperature;BME280_humidity;BME280_pressure;Samples;Min_cycle;Max_cycle;Signal;HPM_P1;HPM_P2
2022/06/17 00:00:30;0.00;0.00;0.62;0.00;0.00;0.62;;;;;22.80;1.00;;;;;;2280740;60;1099;-87
2022/06/17 00:02:57;128747.00;0.43;223.17;0.00;0.00;0.62;;;;;22.60;1.00;;;;;;2280717;60;1910;-88
2022/06/17 00:05:24;90124.00;0.30;156.52;0.00;0.00;0.62;;;;;22.60;1.00;;;;;;2280680;60;1717;-85
2022/06/17 00:07:51;61698.00;0.21;107.41;0.00;0.00;0.62;;;;;22.70;1.00;;;;;;2280684;60;1349;-86
2022/06/17 00:10:23;0.00;0.00;0.62;0.00;0.00;0.62;;;;;22.80;1.00;;;;;;2280756;60;1065;-86
2022/06/17 00:12:50;0.00;0.00;0.62;0.00;0.00;0.62;;;;;22.70;1.00;;;;;;2280677;60;1075;-87
2022/06/17 00:15:17;0.00;0.00;0.62;0.00;0.00;0.62;;;;;22.50;1.00;;;;;;2280734;60;1667;-85
2022/06/17 00:17:48;0.00;0.00;0.62;0.00;0.00;0.62;;;;;22.70;1.00;;;;;;2280710;60;1415;-88
2022/06/17 00:20:18;244250.00;0.81;422.06;34042.00;0.11;59.58;;;;;22.80;1.00;;;;;;2280712;60;984;-85
2022/06/17 00:22:46;0.00;0.00;0.62;0.00;0.00;0.62;;;;;22.60;1.00;;;;;;2280661;60;1986;-85
2022/06/17 00:25:23;0.00;0.00;0.62;0.00;0.00;0.62;;;;;22.60;1.00;;;;;;2280662;60;1190;-85
2022/06/17 00:27:52;24839.00;0.08;43.65;0.00;0.00;0.62;;;;;22.70;1.00;;;;;;2280570;60;1377;-86
2022/06/17 00:30:23;294270.00;0.98;508.07;13634.00;0.05;24.24;;;;;22.80;1.00;;;;;;2280590;60;1150;-88
2022/06/17 00:32:53;0.00;0.00;0.62;0.00;0.00;0.62;;;;;22.50;1.00;;;;;;2280612;60;1078;-87
2022/06/17 00:35:20;0.00;0.00;0.62;0.00;0.00;0.62;;;;;22.30;1.00;;;;;;2280462;60;996;-85
2022/06/17 00:37:47;7696.00;0.03;13.96;0.00;0.00;0.62;;;;;21.90;1.00;;;;;;2280559;60;1386;-86
2022/06/17 00:40:18;57539.00;0.19;100.22;0.00;0.00;0.62;;;;;21.80;1.00;;;;;;2280638;60;1075;-86
2022/06/17 00:42:45;207254.00;0.69;358.41;0.00;0.00;0.62;;;;;21.80;1.00;;;;;;2280547;60;2008;-86
2022/06/17 00:45:27;101752.00;0.34;176.60;29765.00;0.10;52.18;;;;;22.00;1.00;;;;;;2280574;60;1648;-86
2022/06/17 00:48:02;0.00;0.00;0.62;0.00;0.00;0.62;;;;;22.00;1.00;;;;;;2280582;60;1379;-86
2022/06/17 00:50:36;237521.00;0.79;410.49;0.00;0.00;0.62;;;;;22.00;1.00;;;;;;2280657;60;1054;-86
2022/06/17 00:53:17;3463.00;0.01;6.62;0.00;0.00;0.62;;;;;22.10;1.00;;;;;;2280619;60;1117;-85
2022/06/17 00:55:46;43466.00;0.14;75.88;0.00;0.00;0.62;;;;;22.40;1.00;;;;;;2280643;60;1078;-85
2022/06/17 00:58:17;69561.00;0.23;121.00;0.00;0.00;0.62;;;;;22.70;1.00;;;;;;2280596;60;1331;-85
2022/06/17 01:00:47;146382.00;0.49;253.57;0.00;0.00;0.62;;;;;22.60;1.00;;;;;;2280597;60;1022;-84
2022/06/17 01:03:18;76642.00;0.26;133.24;0.00;0.00;0.62;;;;;22.70;1.00;;;;;;2280578;60;1993;-85
2022/06/17 01:05:49;213862.00;0.71;369.78;0.00;0.00;0.62;;;;;22.60;1.00;;;;;;2280602;60;1684;-85
2022/06/17 01:11:05;0.00;0.00;0.62;0.00;0.00;0.62;;;;;22.40;1.00;;;;;;2280413;60;1389;-87
2022/06/17 01:13:32;132229.00;0.44;229.17;0.00;0.00;0.62;;;;;22.50;1.00;;;;;;2280518;60;1053;-85
2022/06/17 01:16:01;204593.00;0.68;353.83;0.00;0.00;0.62;;;;;22.50;1.00;;;;;;2280517;60;1105;-85
2022/06/17 01:18:32;110582.00;0.37;191.83;0.00;0.00;0.62;;;;;22.50;1.00;;;;;;2280490;60;1186;-85
2022/06/17 01:21:06;116669.00;0.39;202.34;0.00;0.00;0.62;;;;;22.40;1.00;;;;;;2280423;60;1046;-84
2022/06/17 01:23:36;445820.00;1.49;768.59;202369.00;0.67;350.00;;;;;22.30;1.00;;;;;;2280506;60;2009;-86
2022/06/17 01:26:03;215394.00;0.72;372.42;24026.00;0.08;42.24;;;;;22.40;1.00;;;;;;2280502;60;1213;-85
2022/06/17 01:28:29;219477.00;0.73;379.44;0.00;0.00;0.62;;;;;22.20;1.00;;;;;;2280511;60;1555;-87
2022/06/17 01:31:02;1436476.00;4.79;2524.15;185187.00;0.62;320.42;;;;;22.50;1.00;;;;;;2280545;60;1170;-87
2022/06/17 01:33:33;938628.00;3.13;1624.07;130758.00;0.44;226.64;;;;;22.50;1.00;;;;;;2280535;60;1120;-86
2022/06/17 01:36:04;941835.00;3.14;1629.72;22414.00;0.07;39.45;;;;;22.40;1.00;;;;;;2280550;60;1128;-86
2022/06/17 01:38:33;1111397.00;3.70;1930.82;87115.00;0.29;151.33;;;;;22.40;1.00;;;;;;2280488;60;1923;-86
2022/06/17 01:41:03;1725523.00;5.75;3075.12;142053.00;0.47;246.11;;;;;22.30;1.00;;;;;;2280531;60;1012;-86
2022/06/17 01:43:39;783813.00;2.61;1352.91;35515.00;0.12;62.13;;;;;22.20;1.00;;;;;;2280385;60;1996;-87
2022/06/17 01:46:12;1138733.00;3.80;1979.83;124415.00;0.41;215.70;;;;;21.90;1.00;;;;;;2280454;60;1455;-87
2022/06/17 01:48:45;1161751.00;3.87;2021.22;164828.00;0.55;285.36;;;;;22.00;1.00;;;;;;2280505;60;1058;-85
2022/06/17 01:51:16;814941.00;2.72;1407.19;102489.00;0.34;177.87;;;;;22.20;1.00;;;;;;2280484;60;1080;-86
2022/06/17 01:53:50;834928.00;2.78;1442.11;79706.00;0.27;138.53;;;;;21.90;1.00;;;;;;2280393;60;1023;-86
2022/06/17 01:56:23;1270017.00;4.23;2217.34;89690.00;0.30;155.77;;;;;21.70;1.00;;;;;;2280459;60;1376;-86
2022/06/17 01:58:56;1391079.00;4.64;2439.79;200506.00;0.67;346.79;;;;;21.40;1.00;;;;;;2280445;60;1110;-87
2022/06/17 02:01:28;777392.00;2.59;1341.72;73811.00;0.25;128.35;;;;;21.50;1.00;;;;;;2280481;60;1030;-87
2022/06/17 02:04:01;757896.00;2.53;1307.79;92339.00;0.31;160.35;;;;;21.10;1.00;;;;;;2280397;60;1982;-87
2022/06/17 02:06:35;1137041.00;3.79;1976.79;156590.00;0.52;271.16;;;;;21.10;1.00;;;;;;2280320;60;1442;-85
2022/06/17 02:09:02;997769.00;3.33;1728.52;82413.00;0.27;143.21;;;;;21.40;1.00;;;;;;2280354;60;2419;-86
2022/06/17 02:11:30;1594380.00;5.31;2822.00;139408.00;0.46;241.55;;;;;21.40;1.00;;;;;;2280355;60;1152;-87
2022/06/17 02:13:57;778581.00;2.60;1343.79;173830.00;0.58;300.86;;;;;21.30;1.00;;;;;;2280364;60;1120;-87
2022/06/17 02:16:24;366620.00;1.22;632.43;83469.00;0.28;145.03;;;;;21.50;1.00;;;;;;2280334;60;1371;-86
2022/06/17 02:18:52;175901.00;0.59;304.43;76584.00;0.26;133.14;;;;;21.60;1.00;;;;;;2280333;60;1098;-87
2022/06/17 02:21:25;346991.00;1.16;598.69;114830.00;0.38;199.16;;;;;21.10;1.00;;;;;;2280301;60;1030;-86
2022/06/17 02:23:53;162501.00;0.54;281.35;65730.00;0.22;114.38;;;;;20.70;1.00;;;;;;2280366;60;1984;-86
2022/06/17 02:26:22;172267.00;0.57;298.17;80223.00;0.27;139.42;;;;;20.60;1.00;;;;;;2280302;60;1253;-86
2022/06/17 02:28:51;60421.00;0.20;105.20;0.00;0.00;0.62;;;;;20.60;1.00;;;;;;2280280;60;975;-86
2022/06/17 02:31:20;0.00;0.00;0.62;0.00;0.00;0.62;;;;;21.00;1.00;;;;;;2280341;60;1138;-86
2022/06/17 02:33:51;0.00;0.00;0.62;0.00;0.00;0.62;;;;;21.00;1.00;;;;;;2281071;60;1046;-86
2022/06/17 02:36:27;23119.00;0.08;40.67;0.00;0.00;0.62;;;;;21.20;1.00;;;;;;2280993;60;1293;-87
2022/06/17 02:38:55;15724.00;0.05;27.86;0.00;0.00;0.62;;;;;21.20;1.00;;;;;;2281023;60;1054;-87
2022/06/17 02:41:21;0.00;0.00;0.62;0.00;0.00;0.62;;;;;21.30;1.00;;;;;;2281025;60;1015;-85
2022/06/17 02:44:03;110080.00;0.37;190.97;0.00;0.00;0.62;;;;;21.30;1.00;;;;;;2280989;60;1922;-86
2022/06/17 02:46:34;253.00;0.00;1.06;0.00;0.00;0.62;;;;;21.60;1.00;;;;;;2280887;60;1434;-86
2022/06/17 02:49:04;0.00;0.00;0.62;0.00;0.00;0.62;;;;;21.50;1.00;;;;;;2281000;60;1090;-85
2022/06/17 02:51:35;93193.00;0.31;161.82;26818.00;0.09;47.07;;;;;20.70;1.00;;;;;;2280922;60;957;-86
2022/06/17 02:54:05;0.00;0.00;0.62;0.00;0.00;0.62;;;;;20.10;1.00;;;;;;2280926;60;1129;-85
2022/06/17 02:56:36;3756.00;0.01;7.13;0.00;0.00;0.62;;;;;19.00;1.00;;;;;;2280951;60;1381;-84
2022/06/17 02:59:18;0.00;0.00;0.62;0.00;0.00;0.62;;;;;18.40;1.00;;;;;;2280949;60;1098;-85
2022/06/17 03:01:47;182772.00;0.61;316.26;0.00;0.00;0.62;;;;;18.00;1.00;;;;;;2282737;60;945;-86
2022/06/17 03:04:18;63084.00;0.21;109.81;0.00;0.00;0.62;;;;;17.80;1.00;;;;;;2280894;60;1915;-85
2022/06/17 03:06:48;0.00;0.00;0.62;0.00;0.00;0.62;;;;;17.90;1.00;;;;;;2280928;60;1457;-86
2022/06/17 03:09:19;150677.00;0.50;260.97;37502.00;0.13;65.57;;;;;18.20;1.00;;;;;;2280933;60;1075;-87
2022/06/17 03:11:51;9569.00;0.03;17.20;0.00;0.00;0.62;;;;;18.60;1.00;;;;;;2280933;60;1038;-87
2022/06/17 03:14:20;511440.00;1.70;881.52;0.00;0.00;0.62;;;;;19.10;1.00;;;;;;2280923;60;1168;-86
2022/06/17 03:16:50;996991.00;3.32;1727.14;133617.00;0.45;231.57;;;;;19.60;1.00;;;;;;2280868;60;1350;-87
2022/06/17 03:19:17;961229.00;3.20;1663.92;86972.00;0.29;151.08;;;;;20.20;1.00;;;;;;2280941;60;1077;-88
2022/06/17 03:21:46;174230.00;0.58;301.55;75937.00;0.25;132.02;;;;;20.40;1.00;;;;;;2280806;60;1113;-87
2022/06/17 03:24:21;166590.00;0.56;288.39;67412.00;0.22;117.29;;;;;20.70;1.00;;;;;;2280805;60;1993;-86
2022/06/17 03:26:55;434046.00;1.45;748.34;72495.00;0.24;126.07;;;;;21.00;1.00;;;;;;2280828;60;1729;-86
2022/06/17 03:29:26;180385.00;0.60;312.15;79070.00;0.26;137.43;;;;;21.20;1.00;;;;;;2280844;60;1015;-86
2022/06/17 03:32:00;0.00;0.00;0.62;0.00;0.00;0.62;;;;;21.20;1.00;;;;;;2280858;60;1061;-86
2022/06/17 03:34:34;79228.00;0.26;137.70;0.00;0.00;0.62;;;;;21.40;1.00;;;;;;2280806;60;1051;-87
2022/06/17 03:37:07;0.00;0.00;0.62;0.00;0.00;0.62;;;;;21.30;1.00;;;;;;2280791;60;1270;-86
2022/06/17 03:39:38;0.00;0.00;0.62;0.00;0.00;0.62;;;;;21.40;1.00;;;;;;2280852;60;1030;-87
2022/06/17 03:42:13;30213.00;0.10;52.95;0.00;0.00;0.62;;;;;21.30;1.00;;;;;;2280771;60;1035;-85
2022/06/17 03:44:47;57997.00;0.19;101.01;0.00;0.00;0.62;;;;;20.90;1.00;;;;;;2280837;60;1986;-85
2022/06/17 03:47:20;277214.00;0.92;478.75;38824.00;0.13;67.85;;;;;21.00;1.00;;;;;;2280812;60;1493;-87
2022/06/17 03:49:54;264267.00;0.88;456.49;11219.00;0.04;20.06;;;;;20.90;1.00;;;;;;2280741;60;1070;-87
2022/06/17 03:52:36;0.00;0.00;0.62;0.00;0.00;0.62;;;;;20.80;1.00;;;;;;2280740;60;916;-85
2022/06/17 03:55:03;89927.00;0.30;156.18;0.00;0.00;0.62;;;;;21.00;1.00;;;;;;2280787;60;1073;-86
2022/06/17 03:57:32;0.00;0.00;0.62;0.00;0.00;0.62;;;;;21.10;1.00;;;;;;2280705;60;1291;-87
2022/06/17 04:00:03;444318.00;1.48;766.01;58431.00;0.19;101.76;;;;;21.50;1.00;;;;;;2280771;60;1530;-86
2022/06/17 04:02:32;1301742.00;4.34;2275.29;207468.00;0.69;358.78;;;;;21.00;1.00;;;;;;2280817;60;1077;-86
2022/06/17 04:05:01;1013034.00;3.38;1755.57;39556.00;0.13;69.12;;;;;20.70;1.00;;;;;;2280700;60;2005;-87
2022/06/17 04:07:28;973990.00;3.25;1686.46;95699.00;0.32;166.15;;;;;21.00;1.00;;;;;;2280732;60;1425;-87
2022/06/17 04:09:55;117133872.00;390.45;65098864.00;58730.00;0.20;102.28;;;;;20.90;1.00;;;;;;2280674;60;1136;-87
2022/06/17 04:12:27;228216.00;0.76;394.48;77495.00;0.26;134.71;;;;;21.00;1.00;;;;;;2280773;60;1001;-87
2022/06/17 04:15:00;288791.00;0.96;498.65;82567.00;0.28;143.47;;;;;21.10;1.00;;;;;;2280759;60;958;-87
2022/06/17 04:17:33;799173.00;2.66;1379.68;40892.00;0.14;71.43;;;;;21.40;1.00;;;;;;2281176;55;3806;-89
2022/06/17 04:20:24;424878.00;1.42;732.58;80882.00;0.27;140.56;;;;;21.40;1.00;;;;;;2280728;60;1085;-86
2022/06/17 04:22:58;199242.00;0.66;344.62;74100.00;0.25;128.84;;;;;21.30;1.00;;;;;;2280705;60;954;-88
2022/06/17 04:25:33;216917.00;0.72;375.04;64813.00;0.22;112.80;;;;;21.50;1.00;;;;;;2280699;60;1946;-88
2022/06/17 04:28:06;279838.00;0.93;483.26;75019.00;0.25;130.43;;;;;21.30;1.00;;;;;;2280704;60;1470;-86
2022/06/17 04:30:38;13853.00;0.05;24.62;0.00;0.00;0.62;;;;;21.50;1.00;;;;;;2280686;60;1049;-87
2022/06/17 04:33:17;43590.00;0.15;76.10;0.00;0.00;0.62;;;;;21.60;1.00;;;;;;2280669;60;1113;-86
2022/06/17 04:35:44;178721.00;0.60;309.29;72945.00;0.24;126.85;;;;;21.30;1.00;;;;;;2280657;60;1112;-86
2022/06/17 04:38:11;233159.00;0.78;402.98;0.00;0.00;0.62;;;;;21.20;1.00;;;;;;2279518;60;1305;-88
2022/06/17 04:40:42;96493.00;0.32;167.52;0.00;0.00;0.62;;;;;21.20;1.00;;;;;;2276588;61;1113;-87
2022/06/17 04:43:22;33306.00;0.11;58.31;0.00;0.00;0.62;;;;;21.30;1.00;;;;;;2276609;61;1106;-87
2022/06/17 04:45:56;51959.00;0.17;90.57;0.00;0.00;0.62;;;;;21.10;1.00;;;;;;2276553;61;1638;-87
2022/06/17 04:48:24;192732.00;0.64;333.41;0.00;0.00;0.62;;;;;21.30;1.00;;;;;;2276576;61;1490;-87
2022/06/17 04:50:51;89837.00;0.30;156.03;0.00;0.00;0.62;;;;;21.50;1.00;;;;;;2276522;61;1064;-87
2022/06/17 04:53:19;688513.00;2.30;1187.32;27989.00;0.09;49.10;;;;;21.50;1.00;;;;;;2276483;61;1148;-86
2022/06/17 04:55:48;602930.00;2.01;1039.28;84553.00;0.28;146.90;;;;;21.70;1.00;;;;;;2276409;61;1051;-86
2022/06/17 04:58:18;190694.00;0.64;329.90;0.00;0.00;0.62;;;;;21.70;1.00;;;;;;2276481;61;1419;-87
2022/06/17 05:00:48;29935.00;0.10;52.47;0.00;0.00;0.62;;;;;21.80;1.00;;;;;;2276423;61;1500;-86
2022/06/17 05:03:16;110906.00;0.37;192.39;0.00;0.00;0.62;;;;;22.00;1.00;;;;;;2276507;61;1012;-86
2022/06/17 05:05:47;64311.00;0.21;111.93;0.00;0.00;0.62;;;;;22.10;1.00;;;;;;2276475;61;2005;-87
2022/06/17 05:08:21;91887.00;0.31;159.57;0.00;0.00;0.62;;;;;22.40;1.00;;;;;;2276480;61;1584;-86
2022/06/17 05:10:56;100415.00;0.33;174.29;0.00;0.00;0.62;;;;;22.20;1.00;;;;;;2276509;61;1104;-85
2022/06/17 05:13:28;83605.00;0.28;145.26;0.00;0.00;0.62;;;;;22.10;1.00;;;;;;2276482;61;1038;-86
2022/06/17 05:15:55;89512.00;0.30;155.47;0.00;0.00;0.62;;;;;21.70;1.00;;;;;;2276448;61;1098;-86
2022/06/17 05:18:22;243006.00;0.81;419.92;0.00;0.00;0.62;;;;;21.50;1.00;;;;;;2276372;61;1420;-85
2022/06/17 05:20:50;0.00;0.00;0.62;0.00;0.00;0.62;;;;;21.40;1.00;;;;;;2276422;61;1055;-85
2022/06/17 05:23:19;201963.00;0.67;349.30;19337.00;0.06;34.12;;;;;21.50;1.00;;;;;;2276474;61;1127;-88
2022/06/17 05:25:48;994055.00;3.31;1721.95;94359.00;0.31;163.83;;;;;21.50;1.00;;;;;;2276431;61;2010;-87
2022/06/17 05:28:17;1201315.00;4.00;2092.60;20223.00;0.07;35.66;;;;;21.80;1.00;;;;;;2276359;61;1282;-86
2022/06/17 05:30:51;1442558.00;4.81;2535.49;63954.00;0.21;111.31;;;;;21.50;1.00;;;;;;2276442;61;1124;-86
2022/06/17 05:33:19;1200571.00;4.00;2091.25;143357.00;0.48;248.36;;;;;21.40;1.00;;;;;;2276474;61;1304;-87
2022/06/17 05:35:47;226195.00;0.75;391.00;73133.00;0.24;127.17;;;;;21.30;1.00;;;;;;2276462;61;1038;-87
2022/06/17 05:38:15;161686.00;0.54;279.94;0.00;0.00;0.62;;;;;21.60;1.00;;;;;;2276341;61;1367;-87
2022/06/17 05:40:43;94783.00;0.32;164.57;0.00;0.00;0.62;;;;;22.60;1.00;;;;;;2276318;61;1094;-84
2022/06/17 05:43:11;307602.00;1.03;530.99;14609.00;0.05;25.93;;;;;24.20;1.00;;;;;;2276323;61;1190;-85
2022/06/17 05:45:38;1681659.00;5.61;2989.84;105510.00;0.35;183.08;;;;;25.90;1.00;;;;;;2276299;61;2006;-87
2022/06/17 05:48:06;1059423.00;3.53;1838.01;35865.00;0.12;62.73;;;;;27.40;1.00;;;;;;2276363;61;1405;-86
2022/06/17 05:50:33;353174.00;1.18;609.32;1256.00;0.00;2.80;;;;;28.90;1.00;;;;;;2276181;61;1520;-87
2022/06/17 05:53:02;1358039.00;4.53;2378.72;81137.00;0.27;141.00;;;;;29.90;1.00;;;;;;2276403;61;1067;-86
2022/06/17 05:55:33;404952.00;1.35;698.32;167684.00;0.56;290.28;;;;;30.90;1.00;;;;;;2276184;61;1144;-86
2022/06/17 05:58:00;470098.00;1.57;810.36;109112.00;0.36;189.30;;;;;32.00;1.00;;;;;;2276271;61;1318;-86
2022/06/17 06:00:28;117249960.00;390.83;65292784.00;67425.00;0.22;117.31;;;;;32.60;1.00;;;;;;2276410;61;1093;-86
2022/06/17 06:02:57;247990.00;0.83;428.49;60735.00;0.20;105.75;;;;;32.20;1.00;;;;;;2276208;61;1119;-87
2022/06/17 06:05:25;121170.00;0.40;210.10;0.00;0.00;0.62;;;;;32.40;1.00;;;;;;2276322;61;1922;-84
2022/06/17 06:07:52;19355.00;0.06;34.15;0.00;0.00;0.62;;;;;32.50;1.00;;;;;;2276958;61;1514;-84
2022/06/17 06:10:20;30924.00;0.10;54.18;0.00;0.00;0.62;;;;;32.90;1.00;;;;;;2276990;61;1096;-83
2022/06/17 06:13:04;0.00;0.00;0.62;0.00;0.00;0.62;;;;;32.60;1.00;;;;;;2276905;61;1079;-83
2022/06/17 06:15:35;206363.00;0.69;356.88;0.00;0.00;0.62;;;;;33.00;1.00;;;;;;2277019;61;2468;-86
2022/06/17 06:18:02;0.00;0.00;0.62;0.00;0.00;0.62;;;;;33.20;1.00;;;;;;2276844;61;1329;-85
2022/06/17 06:20:30;911895.00;3.04;1577.02;55740.00;0.19;97.11;;;;;34.10;1.00;;;;;;2276876;61;1023;-87
2022/06/17 06:22:57;409922.00;1.37;706.86;0.00;0.00;0.62;;;;;33.60;1.00;;;;;;2276822;61;1009;-86
2022/06/17 06:25:25;38671.00;0.13;67.59;0.00;0.00;0.62;;;;;33.70;1.00;;;;;;2276913;61;2001;-86
2022/06/17 06:27:53;84440.00;0.28;146.71;0.00;0.00;0.62;;;;;33.70;1.00;;;;;;2276958;61;1264;-86
2022/06/17 06:30:23;73217.00;0.24;127.32;0.00;0.00;0.62;;;;;34.30;1.00;;;;;;2276885;61;1566;-87
2022/06/17 06:32:53;285353.00;0.95;492.74;0.00;0.00;0.62;;;;;35.00;1.00;;;;;;2276915;61;1094;-87
2022/06/17 06:35:22;860388.00;2.87;1486.65;0.00;0.00;0.62;;;;;34.50;1.00;;;;;;2276755;61;1216;-86
2022/06/17 06:37:49;568766.00;1.90;980.32;83066.00;0.28;144.33;;;;;34.70;1.00;;;;;;2276456;61;1328;-87
2022/06/17 06:40:16;215635.00;0.72;372.83;0.00;0.00;0.62;;;;;34.00;1.00;;;;;;2276926;61;1079;-87
2022/06/17 06:42:43;20224.00;0.07;35.66;0.00;0.00;0.62;;;;;33.60;1.00;;;;;;2276747;61;1107;-87
2022/06/17 06:45:17;688720.00;2.30;1187.68;47084.00;0.16;82.14;;;;;34.80;1.00;;;;;;2276871;61;1915;-87
2022/06/17 06:47:45;1220214.00;4.07;2126.81;32461.00;0.11;56.84;;;;;35.40;1.00;;;;;;2276899;61;1447;-87
2022/06/17 06:50:15;491070.00;1.64;846.45;0.00;0.00;0.62;;;;;35.30;1.00;;;;;;2276425;61;1002;-88
2022/06/17 06:52:42;58302.00;0.19;101.54;0.00;0.00;0.62;;;;;36.00;1.00;;;;;;2276772;61;1024;-86
2022/06/17 06:55:09;463417.00;1.54;798.86;67633.00;0.23;117.67;;;;;35.70;1.00;;;;;;2276691;61;940;-88
2022/06/17 06:57:43;191930.00;0.64;332.03;25140.00;0.08;44.17;;;;;35.10;1.00;;;;;;2276800;61;1487;-88
2022/06/17 07:00:13;263750.00;0.88;455.60;0.00;0.00;0.62;;;;;34.80;1.00;;;;;;2276404;61;1070;-87
2022/06/17 07:02:42;1237304.00;4.12;2157.81;125750.00;0.42;218.00;;;;;35.70;1.00;;;;;;2280305;60;1854;-86
2022/06/17 07:05:09;118759864.00;395.87;67850192.00;12603.00;0.04;22.46;;;;;36.10;1.00;;;;;;2280784;60;1990;-86
2022/06/17 07:07:37;103485.00;0.34;179.59;0.00;0.00;0.62;;;;;36.00;1.00;;;;;;2280844;60;1356;-87
2022/06/17 07:10:05;55450.00;0.18;96.61;0.00;0.00;0.62;;;;;36.00;1.00;;;;;;2280798;60;1104;-87
2022/06/17 07:12:33;380710.00;1.27;656.65;31013.00;0.10;54.34;;;;;36.20;1.00;;;;;;2280845;60;1141;-87
2022/06/17 07:15:00;115196.00;0.38;199.80;0.00;0.00;0.62;;;;;36.60;1.00;;;;;;2280822;60;1109;-86
2022/06/17 07:17:27;74154.00;0.25;128.94;0.00;0.00;0.62;;;;;36.50;1.00;;;;;;2280535;60;1226;-87
2022/06/17 07:19:55;202784.00;0.68;350.72;0.00;0.00;0.62;;;;;36.90;1.00;;;;;;2280858;60;1126;-86
2022/06/17 07:22:22;264333.00;0.88;456.60;0.00;0.00;0.62;;;;;36.80;1.00;;;;;;2280790;60;901;-87
2022/06/17 07:24:49;445984.00;1.49;768.87;0.00;0.00;0.62;;;;;37.00;1.00;;;;;;2280592;60;1911;-87
2022/06/17 07:27:16;93751.00;0.31;162.78;0.00;0.00;0.62;;;;;37.30;1.00;;;;;;2280728;60;1404;-87
2022/06/17 07:29:43;141623.00;0.47;245.37;21881.00;0.07;38.53;;;;;37.30;1.00;;;;;;2280774;60;1503;-85
2022/06/17 07:32:10;157769.00;0.53;273.20;0.00;0.00;0.62;;;;;36.40;1.00;;;;;;2280743;60;1140;-86
2022/06/17 07:34:37;1019191.00;3.40;1766.49;84038.00;0.28;146.01;;;;;36.40;1.00;;;;;;2280744;60;1134;-86
2022/06/17 07:39:57;314452.00;1.05;542.76;25345.00;0.08;44.52;;;;;37.20;1.00;;;;;;2280666;60;698;-87
2022/06/17 07:42:37;109339.00;0.36;189.69;34549.00;0.12;60.46;;;;;37.30;1.00;;;;;;2280670;60;1014;-87
2022/06/17 07:45:05;412813.00;1.38;711.83;23731.00;0.08;41.73;;;;;36.60;1.00;;;;;;2280619;60;1911;-86
2022/06/17 07:47:32;223808.00;0.75;386.90;13992.00;0.05;24.86;;;;;35.80;1.00;;;;;;2280468;60;1269;-87
2022/06/17 07:49:59;118222.00;0.39;205.02;0.00;0.00;0.62;;;;;37.00;1.00;;;;;;2280630;60;1126;-86
2022/06/17 07:52:27;307127.00;1.02;530.17;112318.00;0.37;194.83;;;;;37.50;1.00;;;;;;2280638;60;1017;-87
2022/06/17 07:54:54;855655.00;2.85;1478.37;0.00;0.00;0.62;;;;;37.20;1.00;;;;;;2280694;60;1122;-87
2022/06/17 07:57:21;767754.00;2.56;1324.94;15100.00;0.05;26.78;;;;;36.30;1.00;;;;;;2280571;60;1393;-83
2022/06/17 07:59:48;637319.00;2.12;1098.70;186564.00;0.62;322.79;;;;;36.40;1.00;;;;;;2280575;60;1090;-86
2022/06/17 08:04:47;331580.00;1.11;572.20;0.00;0.00;0.62;;;;;36.60;1.00;;;;;;2278172;61;1907;-87
2022/06/17 08:07:14;25567.00;0.09;44.91;0.00;0.00;0.62;;;;;37.00;1.00;;;;;;2274454;61;1289;-86
2022/06/17 08:09:42;37993.00;0.13;66.42;0.00;0.00;0.62;;;;;37.10;1.00;;;;;;2272524;61;920;-87
2022/06/17 08:12:13;53080.00;0.18;92.51;0.00;0.00;0.62;;;;;36.30;1.00;;;;;;2272508;61;1078;-86
2022/06/17 08:14:43;203054.00;0.68;351.18;0.00;0.00;0.62;;;;;36.30;1.00;;;;;;2272389;61;2234;-88
2022/06/17 08:17:12;323180.00;1.08;557.76;0.00;0.00;0.62;;;;;36.40;1.00;;;;;;2272321;61;1320;-86
2022/06/17 08:19:39;550097.00;1.83;948.13;0.00;0.00;0.62;;;;;36.50;1.00;;;;;;2272402;61;1077;-86
2022/06/17 08:22:06;148478.00;0.49;257.18;0.00;0.00;0.62;;;;;36.10;1.00;;;;;;2272411;61;1090;-87
2022/06/17 08:24:33;212238.00;0.71;366.99;960.00;0.00;2.28;;;;;35.30;1.00;;;;;;2272247;61;2001;-88
2022/06/17 08:27:01;263837.00;0.88;455.75;61321.00;0.20;106.76;;;;;35.90;1.00;;;;;;2272458;61;1281;-87
2022/06/17 08:29:28;118670224.00;395.57;67696528.00;40073.00;0.13;70.01;;;;;36.40;1.00;;;;;;2272432;61;929;-86
2022/06/17 08:32:44;919324.00;3.06;1590.08;132328.00;0.44;229.34;;;;;36.00;1.00;;;;;;2272448;61;1081;-88
2022/06/17 08:34:42;515354.00;1.72;888.26;38435.00;0.13;67.18;;;;;36.00;1.00;;;;;;2272429;61;1378;-87
2022/06/17 08:37:10;0.00;0.00;0.62;0.00;0.00;0.62;;;;;35.40;1.00;;;;;;2272300;61;1374;-89
2022/06/17 08:39:37;56817.00;0.19;98.97;0.00;0.00;0.62;;;;;35.10;1.00;;;;;;2272406;61;1082;-86
2022/06/17 08:42:15;138998.00;0.46;240.84;0.00;0.00;0.62;;;;;34.90;1.00;;;;;;2272429;61;1059;-88
2022/06/17 08:44:50;87337.00;0.29;151.71;0.00;0.00;0.62;;;;;34.70;1.00;;;;;;2272299;61;2016;-86
2022/06/17 08:47:37;888845.00;2.96;1536.54;38449.00;0.13;67.20;;;;;34.30;1.00;;;;;;2272142;61;1436;-88
2022/06/17 08:50:31;1063852.00;3.55;1845.90;7097.00;0.02;12.92;;;;;33.90;1.00;;;;;;2272281;61;984;-87
2022/06/17 08:53:17;513312.00;1.71;884.75;0.00;0.00;0.62;;;;;34.70;1.00;;;;;;2272318;61;958;-88
2022/06/17 08:55:53;168552.00;0.56;291.77;68085.00;0.23;118.45;;;;;35.40;1.00;;;;;;2272118;61;1053;-86
2022/06/17 08:58:36;240787.00;0.80;416.10;64848.00;0.22;112.86;;;;;35.60;1.00;;;;;;2272335;61;1444;-86
2022/06/17 09:01:11;219984.00;0.73;380.32;64351.00;0.21;112.00;;;;;35.20;1.00;;;;;;2272460;61;1126;-87
2022/06/17 09:04:03;537882.00;1.79;927.07;0.00;0.00;0.62;;;;;35.80;1.00;;;;;;2272190;61;1100;-86
2022/06/17 09:06:42;0.00;0.00;0.62;0.00;0.00;0.62;;;;;34.90;1.00;;;;;;2272327;61;1986;-86
2022/06/17 09:09:34;30074.00;0.10;52.71;0.00;0.00;0.62;;;;;34.50;1.00;;;;;;2272446;61;1057;-87
2022/06/17 09:12:11;0.00;0.00;0.62;0.00;0.00;0.62;;;;;34.50;1.00;;;;;;2272359;61;1154;-86
2022/06/17 09:14:51;52742.00;0.18;91.93;0.00;0.00;0.62;;;;;34.50;1.00;;;;;;2272399;61;1228;-88
2022/06/17 09:17:27;260209.00;0.87;449.51;0.00;0.00;0.62;;;;;34.50;1.00;;;;;;2272319;61;1812;-87
2022/06/17 09:19:59;54931.00;0.18;95.71;0.00;0.00;0.62;;;;;34.20;1.00;;;;;;2272258;61;1481;-86
2022/06/17 09:22:30;42263.00;0.14;73.80;0.00;0.00;0.62;;;;;33.90;1.00;;;;;;2272332;61;1132;-87
2022/06/17 09:25:05;25024.00;0.08;43.97;0.00;0.00;0.62;;;;;33.70;1.00;;;;;;2272267;61;1969;-88
2022/06/17 09:27:36;303186.00;1.01;523.40;72800.00;0.24;126.60;;;;;33.70;1.00;;;;;;2272181;61;1422;-86
2022/06/17 09:30:11;86923.00;0.29;150.99;19531.00;0.07;34.46;;;;;33.30;1.00;;;;;;2272259;61;1015;-87
2022/06/17 09:32:43;15675.00;0.05;27.78;0.00;0.00;0.62;;;;;32.60;1.00;;;;;;2272349;61;1087;-86
2022/06/17 09:35:18;314870.00;1.05;543.48;51809.00;0.17;90.31;;;;;32.50;1.00;;;;;;2272365;61;1180;-88
2022/06/17 09:37:52;224270.00;0.75;387.69;33037.00;0.11;57.84;;;;;32.60;1.00;;;;;;2272137;61;1377;-86
2022/06/17 09:40:26;118000.00;0.39;204.63;0.00;0.00;0.62;;;;;32.70;1.00;;;;;;2272152;61;1094;-88
2022/06/17 09:43:03;73371.00;0.24;127.59;0.00;0.00;0.62;;;;;32.80;1.00;;;;;;2272285;61;993;-88
2022/06/17 09:45:37;100413.00;0.33;174.28;0.00;0.00;0.62;;;;;32.60;1.00;;;;;;2272177;61;1985;-87
2022/06/17 09:48:10;177093.00;0.59;306.48;0.00;0.00;0.62;;;;;32.20;1.00;;;;;;2272287;61;1468;-88
2022/06/17 09:50:43;501084.00;1.67;863.69;104453.00;0.35;181.26;;;;;31.80;1.00;;;;;;2272233;61;1569;-88
2022/06/17 09:53:17;127110.00;0.42;220.35;0.00;0.00;0.62;;;;;31.60;1.00;;;;;;2286016;40;3579;-88
2022/06/17 09:55:49;1584873.00;5.28;2803.86;49492.00;0.16;86.31;;;;;32.00;1.00;;;;;;2276955;61;1344;-88
2022/06/17 09:58:28;187992.00;0.63;325.25;0.00;0.00;0.62;;;;;31.70;1.00;;;;;;2306093;55;3887;-88
2022/06/17 10:00:58;114333.00;0.38;198.31;0.00;0.00;0.62;;;;;30.90;1.00;;;;;;2339686;40;3634;-88
2022/06/17 10:03:27;436413.00;1.45;752.41;0.00;0.00;0.62;;;;;30.90;1.00;;;;;;2275789;61;1671;-88
2022/06/17 10:11:05;961897.00;3.21;1665.10;8931.00;0.03;16.10;;;;;31.20;1.00;;;;;;2277790;61;1365;-87
2022/06/17 10:13:42;182857.00;0.61;316.41;0.00;0.00;0.62;;;;;31.20;1.00;;;;;;2276124;61;1026;-88
2022/06/17 10:19:21;94268.00;0.31;163.68;0.00;0.00;0.62;;;;;31.40;1.00;;;;;;2303709;40;3679;-87
2022/06/17 10:27:01;1054596.00;3.52;1829.41;0.00;0.00;0.62;;;;;31.10;1.00;;;;;;2289808;40;3666;-87